Time;durP1;ratioP1;P1;durP2;ratioP2;P2;SDS_P1;SDS_P2;PMS_P1;PMS_P2;Temp;Humidity;BMP_temperature;BMP_pressure;BME280_temperature;BME280_humidity;BME280_pressure;Samples;Min_cycle;Max_cycle;Signal;HPM_P1;HPM_P2
2022/10/08 00:00:07;;;;;;;70.90;37.13;;;11.30;99.90;;;;;;5150059;27;20031;-57
2022/10/08 00:02:32;;;;;;;56.78;33.35;;;11.10;99.90;;;;;;5150551;27;20022;-56
2022/10/08 00:04:58;;;;;;;61.15;34.60;;;11.10;99.90;;;;;;5150402;27;20381;-56
2022/10/08 00:07:24;;;;;;;58.67;34.28;;;10.90;99.90;;;;;;5150165;27;20025;-59
2022/10/08 00:09:50;;;;;;;60.25;34.75;;;10.90;99.90;;;;;;5148389;27;20151;-59
2022/10/08 00:12:16;;;;;;;50.28;32.53;;;11.00;99.90;;;;;;5129294;28;20474;-58
2022/10/08 00:14:41;;;;;;;51.30;31.73;;;10.90;99.90;;;;;;5127649;28;20031;-59
2022/10/08 00:17:07;;;;;;;48.13;29.08;;;10.90;99.90;;;;;;5129302;27;20485;-57
2022/10/08 00:19:33;;;;;;;46.05;29.27;;;10.80;99.90;;;;;;5129138;28;20382;-57
2022/10/08 00:21:59;;;;;;;44.63;28.95;;;10.80;99.90;;;;;;5129515;28;20046;-56
2022/10/08 00:24:25;;;;;;;59.15;30.27;;;10.80;99.90;;;;;;5129126;28;20034;-58
2022/10/08 00:26:51;;;;;;;49.53;31.30;;;10.70;99.90;;;;;;5129534;28;20027;-58
2022/10/08 00:29:19;;;;;;;48.28;30.13;;;10.70;99.90;;;;;;5129183;28;20019;-58
2022/10/08 00:31:46;;;;;;;56.55;30.52;;;10.60;99.90;;;;;;5129108;27;20023;-56
2022/10/08 00:34:22;;;;;;;52.05;31.15;;;10.60;99.90;;;;;;5129512;28;20029;-57
2022/10/08 00:36:52;;;;;;;49.97;30.35;;;10.60;99.90;;;;;;5129329;27;20030;-57
2022/10/08 00:39:19;;;;;;;55.63;28.50;;;10.50;99.90;;;;;;5129229;28;20034;-56
2022/10/08 00:41:47;;;;;;;;;;;10.40;99.90;;;;;;5129628;28;20049;-57
2022/10/08 00:44:50;;;;;;;49.28;31.58;;;10.40;99.90;;;;;;5129428;27;19907;-59
2022/10/08 00:47:36;;;;;;;53.50;33.28;;;10.50;99.90;;;;;;5129299;28;20487;-57
2022/10/08 00:50:07;;;;;;;47.33;31.08;;;10.50;99.90;;;;;;5121352;28;20121;-57
2022/10/08 00:52:38;;;;;;;42.13;29.30;;;10.60;99.90;;;;;;5129290;27;20084;-56
2022/10/08 00:55:06;;;;;;;54.45;31.13;;;10.50;99.90;;;;;;5129470;28;20056;-57
2022/10/08 00:57:36;;;;;;;47.17;28.98;;;10.40;99.90;;;;;;5129111;27;20061;-58
2022/10/08 01:00:24;;;;;;;50.47;27.45;;;10.40;99.90;;;;;;5132457;27;20473;-56
2022/10/08 01:02:50;;;;;;;40.55;27.98;;;10.40;99.90;;;;;;5132442;27;20030;-58
2022/10/08 01:05:23;;;;;;;46.73;28.47;;;10.30;99.90;;;;;;5132820;27;20031;-58
2022/10/08 01:07:51;;;;;;;41.83;27.13;;;10.40;99.90;;;;;;5133333;27;20027;-59
2022/10/08 01:10:23;;;;;;;46.40;27.98;;;10.30;99.90;;;;;;5132750;27;20027;-59
2022/10/08 01:13:08;;;;;;;44.78;27.42;;;10.30;99.90;;;;;;5132818;27;20037;-57
2022/10/08 01:16:11;;;;;;;46.38;27.60;;;10.30;99.90;;;;;;5132594;27;20414;-58
2022/10/08 01:18:58;;;;;;;47.72;27.75;;;10.30;99.90;;;;;;5132465;27;20034;-58
2022/10/08 01:21:36;;;;;;;46.40;27.17;;;10.30;99.90;;;;;;5132605;27;20448;-57
2022/10/08 01:24:20;;;;;;;;;;;10.30;99.90;;;;;;5132896;27;20478;-59
2022/10/08 01:27:01;;;;;;;44.80;25.27;;;10.20;99.90;;;;;;5132792;27;19921;-57
2022/10/08 01:29:35;;;;;;;37.67;24.02;;;10.10;99.90;;;;;;5132295;27;20023;-57
2022/10/08 01:32:07;;;;;;;45.55;26.13;;;10.10;99.90;;;;;;5132474;27;20030;-59
2022/10/08 01:34:40;;;;;;;44.58;27.35;;;10.00;99.90;;;;;;5132511;27;20034;-57
2022/10/08 01:37:10;;;;;;;47.00;27.83;;;10.00;99.90;;;;;;5132274;27;20023;-57
2022/10/08 01:39:38;;;;;;;47.92;29.60;;;9.90;99.90;;;;;;5132379;27;20019;-57
2022/10/08 01:42:07;;;;;;;52.10;29.42;;;9.90;99.90;;;;;;5132049;27;20037;-58
2022/10/08 01:44:44;;;;;;;57.88;33.58;;;10.00;99.90;;;;;;5132173;27;20532;-56
2022/10/08 01:47:15;;;;;;;54.22;33.85;;;10.00;99.90;;;;;;5132240;27;21360;-59
2022/10/08 01:49:54;;;;;;;54.67;33.28;;;10.00;99.90;;;;;;5132399;27;20027;-57
2022/10/08 01:52:27;;;;;;;59.00;32.45;;;10.00;99.90;;;;;;5131894;27;20019;-55
2022/10/08 01:54:57;;;;;;;58.92;33.10;;;10.00;99.90;;;;;;5132227;27;20378;-57
2022/10/08 01:57:25;;;;;;;51.47;32.67;;;10.00;99.90;;;;;;5131672;27;20477;-57
2022/10/08 01:59:59;;;;;;;54.47;33.38;;;9.90;99.90;;;;;;5132176;27;20039;-58
2022/10/08 02:02:25;;;;;;;61.05;32.60;;;10.00;99.90;;;;;;5131645;27;20101;-58
2022/10/08 02:04:53;;;;;;;60.22;31.45;;;9.90;99.90;;;;;;5131756;27;20100;-59
2022/10/08 02:07:29;;;;;;;53.65;32.05;;;9.80;99.90;;;;;;5131977;27;20031;-56
2022/10/08 02:10:08;;;;;;;48.42;29.98;;;9.90;99.90;;;;;;5131531;27;20023;-57
2022/10/08 02:12:35;;;;;;;53.70;31.98;;;9.90;99.90;;;;;;5131496;27;20052;-58
2022/10/08 02:15:03;;;;;;;60.13;32.85;;;9.80;99.90;;;;;;5131631;27;20050;-57
2022/10/08 02:17:41;;;;;;;52.80;31.75;;;9.80;99.90;;;;;;5131580;27;20066;-59
2022/10/08 02:20:34;;;;;;;56.15;32.33;;;9.80;99.90;;;;;;5131537;27;20042;-57
2022/10/08 02:23:21;;;;;;;57.90;31.83;;;9.80;99.90;;;;;;5131328;27;20027;-58
2022/10/08 02:25:59;;;;;;;54.28;31.15;;;9.70;99.90;;;;;;5131378;27;20102;-58
2022/10/08 02:28:37;;;;;;;50.88;31.08;;;9.70;99.90;;;;;;5129907;27;20019;-56
2022/10/08 02:31:39;;;;;;;51.05;30.80;;;9.70;99.90;;;;;;5131567;27;20035;-59
2022/10/08 02:34:14;;;;;;;53.70;31.70;;;9.70;99.90;;;;;;5129143;27;20019;-57
2022/10/08 02:36:47;;;;;;;50.90;30.70;;;9.70;99.90;;;;;;5131328;27;20101;-57
2022/10/08 02:39:15;;;;;;;56.53;32.35;;;9.70;99.90;;;;;;5129252;27;20112;-58
2022/10/08 02:41:51;;;;;;;51.90;33.63;;;9.70;99.90;;;;;;5137852;27;20039;-57
2022/10/08 02:44:31;;;;;;;51.40;33.55;;;9.70;99.90;;;;;;5133468;27;20034;-57
2022/10/08 02:47:01;;;;;;;53.92;32.92;;;9.80;99.90;;;;;;5152124;27;20037;-57
2022/10/08 02:49:33;;;;;;;59.17;34.55;;;9.70;99.90;;;;;;5151648;27;20607;-56
2022/10/08 02:52:01;;;;;;;57.13;33.92;;;9.70;99.90;;;;;;5152311;27;20038;-57
2022/10/08 02:54:31;;;;;;;50.05;31.83;;;9.70;99.90;;;;;;5152098;27;20022;-59
2022/10/08 02:57:20;;;;;;;56.60;34.22;;;9.60;99.90;;;;;;5151685;27;20070;-58
2022/10/08 02:59:47;;;;;;;52.60;33.95;;;9.70;99.90;;;;;;5142456;27;20073;-57
2022/10/08 03:02:20;;;;;;;55.80;35.78;;;9.70;99.90;;;;;;5131186;27;20090;-57
2022/10/08 03:04:53;;;;;;;56.72;33.63;;;9.70;99.90;;;;;;5112497;27;20039;-59
2022/10/08 03:07:21;;;;;;;51.88;29.75;;;9.60;99.90;;;;;;5130811;27;20042;-58
2022/10/08 03:09:50;;;;;;;48.22;29.13;;;9.60;99.90;;;;;;5131065;27;20049;-59
2022/10/08 03:12:17;;;;;;;45.08;29.08;;;9.60;99.90;;;;;;5131088;27;20051;-59
2022/10/08 03:14:47;;;;;;;50.22;27.27;;;9.50;99.90;;;;;;5111792;27;20532;-58
2022/10/08 03:17:19;;;;;;;49.30;28.52;;;9.50;99.90;;;;;;5131152;27;20026;-56
2022/10/08 03:19:45;;;;;;;51.88;29.73;;;9.50;99.90;;;;;;5130404;27;20023;-57
2022/10/08 03:22:10;;;;;;;51.05;32.35;;;9.50;99.90;;;;;;5129979;27;20034;-56
2022/10/08 03:24:36;;;;;;;46.75;29.20;;;9.50;99.90;;;;;;5130639;27;20728;-57
2022/10/08 03:27:03;;;;;;;45.60;29.17;;;9.40;99.90;;;;;;5130727;27;20023;-59
2022/10/08 03:29:28;;;;;;;54.23;33.80;;;9.40;99.90;;;;;;5130413;27;20463;-56
2022/10/08 03:31:54;;;;;;;50.53;30.98;;;9.50;99.90;;;;;;5130619;27;20130;-58
2022/10/08 03:34:19;;;;;;;44.20;30.17;;;9.50;99.90;;;;;;5130393;27;20110;-58
2022/10/08 03:36:45;;;;;;;48.47;29.67;;;9.50;99.90;;;;;;5143704;27;20038;-56
2022/10/08 03:39:11;;;;;;;48.45;33.35;;;9.40;99.90;;;;;;5151280;27;20037;-56
2022/10/08 03:41:37;;;;;;;52.38;33.17;;;9.40;99.90;;;;;;5150910;27;20035;-59
2022/10/08 03:44:03;;;;;;;53.47;33.05;;;9.20;99.90;;;;;;5150793;27;20026;-58
2022/10/08 03:46:28;;;;;;;50.70;33.38;;;9.10;99.90;;;;;;5151311;27;20023;-59
2022/10/08 03:48:54;;;;;;;56.83;33.95;;;9.10;99.90;;;;;;5150777;27;20026;-58
2022/10/08 03:51:22;;;;;;;55.88;35.80;;;9.20;99.90;;;;;;5150919;27;20034;-57
2022/10/08 03:53:48;;;;;;;55.40;34.28;;;9.20;99.90;;;;;;5150686;27;20035;-57
2022/10/08 03:56:24;;;;;;;52.55;32.65;;;9.10;99.90;;;;;;5150967;27;20041;-57
2022/10/08 03:58:55;;;;;;;59.20;34.17;;;9.10;99.90;;;;;;5150661;27;20124;-57
2022/10/08 04:01:21;;;;;;;47.00;30.83;;;9.10;99.90;;;;;;5150655;27;20434;-58
2022/10/08 04:03:47;;;;;;;49.35;32.15;;;9.00;99.90;;;;;;5150571;27;20071;-58
2022/10/08 04:06:13;;;;;;;47.60;29.63;;;9.10;99.90;;;;;;5150955;27;20423;-57
2022/10/08 04:08:39;;;;;;;47.13;28.95;;;9.10;99.90;;;;;;5150681;27;20075;-59
2022/10/08 04:11:07;;;;;;;42.88;28.85;;;9.00;99.90;;;;;;5150501;27;20034;-59
2022/10/08 04:13:34;;;;;;;51.20;30.13;;;9.00;99.90;;;;;;5150742;27;20414;-58
2022/10/08 04:16:02;;;;;;;43.88;28.55;;;9.00;99.90;;;;;;5150183;27;20050;-58
2022/10/08 04:18:28;;;;;;;46.63;28.60;;;9.00;99.90;;;;;;5150476;27;20026;-56
2022/10/08 04:20:58;;;;;;;50.15;31.55;;;9.10;99.90;;;;;;5150718;27;20039;-59
2022/10/08 04:23:24;;;;;;;43.88;29.48;;;9.00;99.90;;;;;;5132130;27;20035;-59
2022/10/08 04:25:51;;;;;;;48.08;30.02;;;8.90;99.90;;;;;;5150558;27;20485;-59
2022/10/08 04:28:16;;;;;;;47.47;28.92;;;8.80;99.90;;;;;;5131807;27;20381;-60
2022/10/08 04:30:42;;;;;;;44.03;29.50;;;8.80;99.90;;;;;;5150329;27;20691;-58
2022/10/08 04:33:08;;;;;;;51.38;30.10;;;8.80;99.90;;;;;;5152770;27;20080;-56
2022/10/08 04:35:37;;;;;;;55.95;32.67;;;8.90;99.90;;;;;;5151850;27;20477;-59
2022/10/08 04:38:03;;;;;;;54.08;30.98;;;8.90;99.90;;;;;;5133606;27;20034;-57
2022/10/08 04:40:28;;;;;;;56.92;34.42;;;8.90;99.90;;;;;;5134005;27;20034;-58
2022/10/08 04:42:54;;;;;;;51.13;31.42;;;8.90;99.90;;;;;;5133613;27;20055;-58
2022/10/08 04:45:19;;;;;;;51.65;30.65;;;8.90;99.90;;;;;;5133511;27;20035;-56
2022/10/08 04:47:45;;;;;;;46.75;31.27;;;8.90;99.90;;;;;;5133852;27;20034;-58
2022/10/08 04:50:11;;;;;;;54.25;31.92;;;8.90;99.90;;;;;;5133741;27;20024;-59
2022/10/08 04:52:36;;;;;;;46.13;30.95;;;8.90;99.90;;;;;;5133687;27;20027;-58
2022/10/08 04:55:02;;;;;;;54.22;33.17;;;8.90;99.90;;;;;;5133367;27;20019;-57
2022/10/08 04:57:28;;;;;;;46.70;32.10;;;9.00;99.90;;;;;;5133804;27;20029;-60
2022/10/08 04:59:53;;;;;;;49.78;30.70;;;8.90;99.90;;;;;;5133038;27;20281;-56
2022/10/08 05:02:19;;;;;;;49.60;31.95;;;9.00;99.90;;;;;;5133511;27;20031;-58
2022/10/08 05:04:44;;;;;;;52.28;32.42;;;8.90;99.90;;;;;;5114940;27;20015;-59
2022/10/08 05:07:10;;;;;;;53.88;31.70;;;8.90;99.90;;;;;;5133368;27;20034;-57
2022/10/08 05:09:36;;;;;;;50.92;30.35;;;8.90;99.90;;;;;;5133309;27;20034;-57
2022/10/08 05:12:01;;;;;;;53.88;31.45;;;9.00;99.90;;;;;;5133267;27;20023;-60
2022/10/08 05:14:27;;;;;;;48.55;31.30;;;9.00;99.90;;;;;;5132923;27;20042;-56
2022/10/08 05:16:52;;;;;;;55.08;33.38;;;9.00;99.90;;;;;;5132990;27;20077;-59
2022/10/08 05:19:18;;;;;;;54.03;31.83;;;9.00;99.90;;;;;;5133025;27;20106;-58
2022/10/08 05:21:43;;;;;;;52.10;31.73;;;9.10;99.90;;;;;;5132830;27;20404;-57
2022/10/08 05:24:10;;;;;;;54.22;32.50;;;9.10;99.90;;;;;;5132906;27;20031;-58
2022/10/08 05:26:38;;;;;;;54.70;33.65;;;9.10;99.90;;;;;;5133196;27;20026;-59
2022/10/08 05:29:04;;;;;;;53.58;33.90;;;9.20;99.90;;;;;;5132428;27;20031;-58
2022/10/08 05:31:31;;;;;;;56.85;33.72;;;9.20;99.90;;;;;;5132790;27;20023;-57
2022/10/08 05:33:56;;;;;;;57.75;34.70;;;9.30;99.90;;;;;;5132582;27;20459;-58
2022/10/08 05:36:25;;;;;;;61.00;36.20;;;9.50;99.90;;;;;;5141968;27;20055;-56
2022/10/08 05:38:51;;;;;;;55.45;35.22;;;9.70;99.90;;;;;;5153439;27;20022;-59
2022/10/08 05:41:21;;;;;;;58.42;36.00;;;9.60;99.90;;;;;;5153136;27;20042;-57
2022/10/08 05:43:48;;;;;;;50.53;32.75;;;9.60;99.90;;;;;;5152694;27;20026;-58
2022/10/08 05:46:14;;;;;;;50.92;30.90;;;9.60;99.90;;;;;;5153450;27;20051;-55
2022/10/08 05:48:40;;;;;;;41.85;27.00;;;9.50;99.90;;;;;;5153004;27;20462;-59
2022/10/08 05:51:09;;;;;;;44.43;26.73;;;9.60;99.90;;;;;;5153413;27;20054;-56
2022/10/08 05:53:36;;;;;;;42.60;28.10;;;9.70;99.90;;;;;;5153029;27;20102;-56
2022/10/08 05:56:04;;;;;;;44.10;27.90;;;9.70;99.90;;;;;;5152869;27;20027;-56
2022/10/08 05:58:32;;;;;;;40.20;27.20;;;9.70;99.90;;;;;;5152966;27;20037;-56
2022/10/08 06:01:15;;;;;;;51.03;31.58;;;9.70;99.90;;;;;;5153026;27;20074;-57
2022/10/08 06:03:41;;;;;;;51.58;32.33;;;9.70;99.90;;;;;;5152746;27;20027;-55
2022/10/08 06:06:09;;;;;;;58.90;33.88;;;9.90;99.90;;;;;;5152823;27;20113;-56
2022/10/08 06:08:37;;;;;;;61.47;37.83;;;10.00;99.90;;;;;;5152108;27;20023;-55
2022/10/08 06:11:04;;;;;;;71.40;39.15;;;10.00;99.90;;;;;;5152909;27;20068;-58
2022/10/08 06:13:30;;;;;;;77.05;44.47;;;10.10;99.90;;;;;;5152614;27;20109;-57
2022/10/08 06:15:57;;;;;;;62.15;39.72;;;10.10;99.90;;;;;;5152563;27;20134;-56
2022/10/08 06:18:32;;;;;;;60.65;37.58;;;10.20;99.90;;;;;;5152591;27;20079;-57
2022/10/08 06:21:10;;;;;;;55.88;37.15;;;10.30;99.90;;;;;;5152574;27;20081;-56
2022/10/08 06:23:37;;;;;;;61.45;36.70;;;10.40;99.90;;;;;;5152503;27;20054;-56
2022/10/08 06:26:07;;;;;;;63.25;36.83;;;10.60;99.90;;;;;;5152476;27;20437;-56
2022/10/08 06:28:35;;;;;;;57.38;35.92;;;10.60;99.90;;;;;;5152326;27;20022;-57
2022/10/08 06:31:02;;;;;;;55.95;35.30;;;10.70;99.90;;;;;;5152272;27;20029;-55
2022/10/08 06:33:28;;;;;;;55.27;35.40;;;10.80;99.90;;;;;;5133662;27;20030;-57
2022/10/08 06:35:54;;;;;;;51.23;33.70;;;11.00;99.90;;;;;;5147213;27;20030;-57
2022/10/08 06:38:21;;;;;;;57.47;34.92;;;11.00;99.90;;;;;;5131456;27;20023;-57
2022/10/08 06:40:46;;;;;;;55.87;34.20;;;11.10;99.90;;;;;;5131197;27;20507;-56
2022/10/08 06:43:18;;;;;;;53.90;34.00;;;11.20;99.90;;;;;;5131414;27;20330;-56
2022/10/08 06:45:45;;;;;;;51.92;33.72;;;11.30;99.90;;;;;;5134301;27;20030;-58
2022/10/08 06:48:12;;;;;;;55.35;35.55;;;11.40;99.90;;;;;;5151943;27;20381;-58
2022/10/08 06:50:38;;;;;;;52.10;35.78;;;11.50;99.90;;;;;;5152070;27;20065;-56
2022/10/08 06:53:06;;;;;;;49.33;34.42;;;11.60;99.90;;;;;;5151848;27;20414;-57
2022/10/08 06:55:32;;;;;;;51.03;33.47;;;11.60;99.90;;;;;;5151818;27;20051;-57
2022/10/08 06:57:59;;;;;;;47.28;33.00;;;11.70;99.90;;;;;;5151637;27;20109;-56
2022/10/08 07:00:25;;;;;;;42.35;30.52;;;11.80;99.90;;;;;;5151792;27;20099;-57
2022/10/08 07:02:55;;;;;;;50.92;33.00;;;12.00;99.90;;;;;;5151709;27;20023;-57
2022/10/08 07:05:21;;;;;;;55.65;37.15;;;12.00;99.90;;;;;;5151881;27;20026;-56
2022/10/08 07:07:46;;;;;;;47.47;32.40;;;12.20;99.90;;;;;;5151647;27;20026;-58
2022/10/08 07:10:12;;;;;;;45.08;32.75;;;12.20;99.90;;;;;;5151662;27;20022;-57
2022/10/08 07:12:37;;;;;;;43.30;30.17;;;12.30;99.90;;;;;;5151588;27;20050;-56
2022/10/08 07:15:03;;;;;;;41.03;29.48;;;12.40;99.90;;;;;;5151167;27;20057;-58
2022/10/08 07:17:29;;;;;;;47.03;33.03;;;12.40;99.90;;;;;;5132565;27;20113;-57
2022/10/08 07:19:56;;;;;;;52.80;33.85;;;12.50;99.90;;;;;;5132600;27;20037;-57
2022/10/08 07:22:22;;;;;;;49.53;34.77;;;12.70;99.90;;;;;;5151480;27;20022;-55
2022/10/08 07:24:48;;;;;;;56.63;34.55;;;12.70;99.90;;;;;;5141996;27;20133;-55
2022/10/08 07:27:14;;;;;;;48.38;30.70;;;13.00;99.90;;;;;;5130382;27;20130;-58
2022/10/08 07:29:40;;;;;;;54.63;30.43;;;13.30;99.90;;;;;;5130230;27;20152;-55
2022/10/08 07:32:06;;;;;;;40.72;29.85;;;13.60;99.90;;;;;;5130403;27;20340;-56
2022/10/08 07:34:31;;;;;;;40.22;28.77;;;13.80;99.90;;;;;;5130553;27;20540;-57
2022/10/08 07:36:57;;;;;;;41.95;29.52;;;14.10;99.90;;;;;;5140571;27;20068;-57
2022/10/08 07:39:23;;;;;;;39.85;27.15;;;14.50;99.90;;;;;;5150971;27;20027;-56
2022/10/08 07:41:49;;;;;;;46.65;29.52;;;14.60;99.90;;;;;;5150794;27;20500;-56
2022/10/08 07:44:16;;;;;;;45.00;28.27;;;14.30;99.90;;;;;;5150825;27;20023;-56
2022/10/08 07:46:47;;;;;;;42.03;28.48;;;14.70;99.90;;;;;;5150572;27;20026;-55
2022/10/08 07:49:14;;;;;;;45.03;28.20;;;14.90;99.90;;;;;;5138458;27;20072;-56
2022/10/08 07:51:42;;;;;;;39.95;26.38;;;15.30;99.90;;;;;;5130064;27;20031;-56
2022/10/08 07:54:12;;;;;;;38.95;27.30;;;15.50;99.90;;;;;;5130021;27;20092;-55
2022/10/08 07:56:38;;;;;;;39.80;26.83;;;15.90;99.90;;;;;;5130073;27;20481;-57
2022/10/08 07:59:04;;;;;;;34.65;23.83;;;16.00;99.90;;;;;;5135970;27;20046;-57
2022/10/08 08:01:32;;;;;;;39.38;24.95;;;16.20;99.90;;;;;;5126324;27;20027;-57
2022/10/08 08:04:03;;;;;;;36.42;24.48;;;16.40;99.90;;;;;;5139991;27;20031;-55
2022/10/08 08:06:30;;;;;;;32.15;22.38;;;16.40;99.90;;;;;;5137754;27;20521;-58
2022/10/08 08:08:58;;;;;;;35.70;24.13;;;16.20;99.90;;;;;;5137726;27;20374;-57
2022/10/08 08:11:23;;;;;;;;;;;16.10;99.90;;;;;;5137338;27;20055;-55
2022/10/08 08:13:51;;;;;;;31.65;22.35;;;16.00;99.90;;;;;;5139004;27;20022;-57
2022/10/08 08:16:19;;;;;;;34.95;22.70;;;16.00;99.90;;;;;;5135259;27;20089;-57
2022/10/08 08:18:47;;;;;;;33.53;21.10;;;16.00;99.90;;;;;;5136831;27;20532;-55
2022/10/08 08:21:21;;;;;;;27.95;18.60;;;16.10;99.90;;;;;;5129751;28;20035;-55
2022/10/08 08:23:52;;;;;;;24.42;14.40;;;16.40;99.90;;;;;;5126579;28;20027;-55
2022/10/08 08:26:31;;;;;;;20.75;10.10;;;16.40;99.90;;;;;;5129520;28;20054;-56
2022/10/08 08:29:03;;;;;;;20.27;10.27;;;16.30;99.90;;;;;;5129402;28;20112;-56
2022/10/08 08:31:34;;;;;;;16.75;9.63;;;16.40;99.90;;;;;;5128891;28;20469;-55
2022/10/08 08:34:04;;;;;;;17.70;9.70;;;16.30;99.90;;;;;;5129060;28;20035;-57
2022/10/08 08:36:35;;;;;;;15.18;8.85;;;16.20;99.90;;;;;;5134540;27;20021;-58
2022/10/08 08:39:01;;;;;;;17.15;11.23;;;16.20;99.90;;;;;;5148791;27;20373;-57
2022/10/08 08:41:51;;;;;;;19.65;9.95;;;16.20;99.90;;;;;;5149757;27;20476;-56
2022/10/08 08:44:17;;;;;;;15.20;9.02;;;16.10;99.90;;;;;;5136390;27;20053;-55
2022/10/08 08:46:52;;;;;;;17.77;9.77;;;16.10;99.90;;;;;;5137918;27;20026;-56
2022/10/08 08:49:25;;;;;;;16.25;9.82;;;16.10;99.90;;;;;;5136389;27;20098;-57
2022/10/08 08:51:52;;;;;;;21.13;11.10;;;16.10;99.90;;;;;;5118744;27;20015;-58
2022/10/08 08:54:18;;;;;;;19.45;11.00;;;16.10;99.90;;;;;;5119381;27;20435;-57
2022/10/08 08:56:43;;;;;;;20.42;11.13;;;16.10;99.90;;;;;;5117214;27;20026;-55
2022/10/08 08:59:33;;;;;;;22.00;12.07;;;16.20;99.90;;;;;;5138219;27;20030;-56
2022/10/08 09:02:10;;;;;;;17.35;10.77;;;16.10;99.90;;;;;;5121203;27;20031;-57
2022/10/08 09:04:41;;;;;;;17.58;11.90;;;16.10;99.90;;;;;;5128736;28;20027;-55
2022/10/08 09:07:12;;;;;;;30.27;13.15;;;16.10;99.90;;;;;;5129228;28;20027;-56
2022/10/08 09:09:44;;;;;;;22.00;12.25;;;16.10;99.90;;;;;;5128521;28;20037;-55
2022/10/08 09:12:19;;;;;;;23.23;12.30;;;16.20;99.90;;;;;;5129719;27;20028;-57
2022/10/08 09:14:57;;;;;;;22.63;12.80;;;16.20;99.90;;;;;;5132602;27;20788;-57
2022/10/08 09:17:37;;;;;;;19.20;13.32;;;16.20;99.90;;;;;;5132459;27;20144;-54
2022/10/08 09:20:04;;;;;;;23.02;12.77;;;16.20;99.90;;;;;;5140376;27;20038;-58
2022/10/08 09:22:38;;;;;;;22.43;13.47;;;16.20;99.90;;;;;;5139295;27;20011;-55
2022/10/08 09:25:10;;;;;;;19.95;13.43;;;16.20;99.90;;;;;;5142080;27;20268;-57
2022/10/08 09:27:43;;;;;;;19.50;13.50;;;16.20;99.90;;;;;;5141127;27;20023;-56
2022/10/08 09:30:24;;;;;;;25.40;14.55;;;16.30;99.90;;;;;;5135411;27;20027;-56
2022/10/08 09:32:56;;;;;;;28.05;13.85;;;16.20;99.90;;;;;;5137630;27;20022;-54
2022/10/08 09:35:23;;;;;;;22.58;14.23;;;16.20;99.90;;;;;;5138318;27;20031;-54
2022/10/08 09:37:50;;;;;;;26.73;15.25;;;16.30;99.90;;;;;;5123558;27;20027;-57
2022/10/08 09:40:22;;;;;;;21.75;14.00;;;16.30;99.90;;;;;;5141005;27;20035;-57
2022/10/08 09:43:13;;;;;;;20.92;13.00;;;16.30;99.90;;;;;;5141644;27;20678;-57
2022/10/08 09:45:45;;;;;;;139.27;112.43;;;16.30;99.90;;;;;;5136934;27;20050;-55
2022/10/08 09:48:18;;;;;;;21.13;14.95;;;16.30;99.90;;;;;;5134754;27;20482;-56
2022/10/08 09:50:50;;;;;;;20.83;13.70;;;16.40;99.90;;;;;;5139513;27;20035;-53
2022/10/08 09:53:16;;;;;;;18.58;13.65;;;16.40;99.90;;;;;;5137892;27;20031;-55
2022/10/08 09:55:54;;;;;;;20.40;12.55;;;16.40;99.90;;;;;;5140499;27;20130;-55
2022/10/08 09:58:20;;;;;;;24.10;13.88;;;16.40;99.90;;;;;;5141077;27;20513;-56
2022/10/08 10:01:01;;;;;;;19.45;13.00;;;16.50;99.90;;;;;;5137743;27;20074;-56
2022/10/08 10:03:27;;;;;;;20.08;14.05;;;16.50;99.90;;;;;;5131986;27;20076;-56
2022/10/08 10:05:55;;;;;;;19.17;12.60;;;16.60;99.90;;;;;;5143071;27;20011;-56
2022/10/08 10:08:45;;;;;;;22.17;13.90;;;16.70;99.90;;;;;;5152298;27;20366;-57
2022/10/08 10:11:18;;;;;;;17.92;13.32;;;16.70;99.90;;;;;;5132401;27;20030;-55
2022/10/08 10:13:47;;;;;;;20.42;13.63;;;16.70;99.90;;;;;;5131718;27;20015;-56
2022/10/08 10:16:37;;;;;;;18.55;13.30;;;16.80;99.90;;;;;;5136735;27;20043;-57
2022/10/08 10:19:08;;;;;;;17.17;12.88;;;16.90;99.90;;;;;;5138153;27;20485;-55
2022/10/08 10:21:42;;;;;;;18.50;12.30;;;17.00;99.90;;;;;;5136392;27;20122;-55
2022/10/08 10:24:30;;;;;;;13.57;11.10;;;17.10;99.90;;;;;;5129768;27;20026;-55
2022/10/08 10:27:11;;;;;;;16.58;11.82;;;17.40;99.90;;;;;;5130325;27;20026;-55
2022/10/08 10:29:50;;;;;;;21.55;10.90;;;17.60;99.90;;;;;;5130992;27;20034;-56
2022/10/08 10:32:22;;;;;;;53.85;35.70;;;17.70;99.90;;;;;;5131479;27;20038;-53
2022/10/08 10:34:57;;;;;;;19.77;12.52;;;18.00;99.90;;;;;;5131446;27;20064;-54
2022/10/08 10:37:40;;;;;;;14.25;11.02;;;17.80;99.90;;;;;;5110524;28;20031;-54
2022/10/08 10:40:27;;;;;;;16.65;10.85;;;17.90;99.90;;;;;;5127867;27;20035;-55
2022/10/08 10:43:05;;;;;;;18.92;12.02;;;17.80;99.90;;;;;;5131333;27;20766;-55
2022/10/08 10:45:35;;;;;;;20.33;12.18;;;17.80;99.90;;;;;;5110494;28;20062;-56
2022/10/08 10:48:01;;;;;;;17.58;11.73;;;17.70;99.90;;;;;;5113649;27;20023;-57
2022/10/08 10:50:48;;;;;;;14.48;11.38;;;17.70;99.90;;;;;;5130372;27;20012;-56
2022/10/08 10:53:40;;;;;;;16.75;11.40;;;17.70;99.90;;;;;;5129127;27;20031;-55
2022/10/08 10:56:17;;;;;;;14.02;10.07;;;17.70;99.90;;;;;;5131082;27;20049;-56
2022/10/08 10:59:21;;;;;;;14.70;11.02;;;17.80;99.90;;;;;;5130068;27;20486;-55
2022/10/08 11:01:52;;;;;;;17.50;11.48;;;17.70;99.90;;;;;;5110257;28;20251;-55
2022/10/08 11:04:18;;;;;;;19.75;12.82;;;17.90;99.90;;;;;;5110397;28;20079;-55
2022/10/08 11:06:44;;;;;;;16.48;10.30;;;17.80;99.90;;;;;;5110191;28;20475;-53
2022/10/08 11:09:32;;;;;;;15.63;11.15;;;17.80;99.90;;;;;;5110109;28;20024;-54
2022/10/08 11:12:31;;;;;;;27.83;14.07;;;17.80;99.90;;;;;;5125315;27;20015;-56
2022/10/08 11:15:05;;;;;;;22.52;11.90;;;18.20;99.90;;;;;;5124649;27;20092;-56
2022/10/08 11:17:51;;;;;;;14.57;10.05;;;18.40;99.90;;;;;;5109578;28;20032;-57
2022/10/08 11:20:28;;;;;;;16.02;11.23;;;18.60;99.90;;;;;;5109836;28;20039;-55
2022/10/08 11:23:16;;;;;;;14.60;10.60;;;18.70;99.90;;;;;;5091816;28;20023;-56
2022/10/08 11:26:04;;;;;;;17.80;11.60;;;18.90;99.90;;;;;;5090925;28;20081;-56
2022/10/08 11:29:11;;;;;;;14.93;10.93;;;18.90;99.90;;;;;;5088722;28;20031;-55
2022/10/08 11:31:43;;;;;;;19.85;10.63;;;19.20;99.90;;;;;;5089084;28;20032;-54
2022/10/08 11:34:36;;;;;;;18.77;10.38;;;19.10;99.90;;;;;;5089517;28;20396;-55
2022/10/08 11:37:35;;;;;;;15.10;10.52;;;18.90;99.90;;;;;;5087702;28;20032;-56
2022/10/08 11:40:05;;;;;;;14.57;10.50;;;18.90;99.90;;;;;;5089552;28;20108;-56
2022/10/08 11:42:51;;;;;;;18.00;10.57;;;19.00;99.90;;;;;;5087899;28;20119;-56
2022/10/08 11:45:22;;;;;;;14.68;10.30;;;19.00;99.90;;;;;;5124079;27;20023;-56
2022/10/08 11:47:51;;;;;;;15.40;10.35;;;19.00;99.90;;;;;;5128487;27;20355;-56
2022/10/08 11:50:29;;;;;;;21.13;10.38;;;19.30;99.90;;;;;;5118320;27;20040;-55
2022/10/08 11:53:08;;;;;;;16.40;10.07;;;19.30;99.90;;;;;;5097088;28;20096;-56
2022/10/08 11:55:35;;;;;;;11.98;9.10;;;19.40;99.90;;;;;;5102334;28;20491;-56
2022/10/08 11:58:19;;;;;;;14.15;10.85;;;19.30;99.90;;;;;;5135699;22;20101;-84
2022/10/08 12:00:47;;;;;;;16.85;10.85;;;19.10;99.90;;;;;;5064832;28;20071;-85
2022/10/08 12:03:29;;;;;;;;;;;19.20;99.90;;;;;;5072877;28;20159;-89
2022/10/08 12:05:59;;;;;;;16.00;10.25;;;19.20;99.90;;;;;;5067432;28;20282;-90
2022/10/08 12:08:50;;;;;;;13.35;9.85;;;19.30;99.90;;;;;;5073788;28;20031;-91
2022/10/08 12:11:31;;;;;;;17.02;10.45;;;19.60;99.90;;;;;;5091619;28;20786;-88
2022/10/08 12:14:15;;;;;;;17.67;11.13;;;19.70;99.90;;;;;;5074102;28;20410;-89
2022/10/08 12:16:47;;;;;;;21.35;10.23;;;19.80;99.90;;;;;;5073829;28;20079;-89
2022/10/08 12:19:40;;;;;;;15.07;10.40;;;19.60;99.90;;;;;;5073446;28;20036;-88
2022/10/08 12:22:23;;;;;;;18.67;10.30;;;19.40;99.90;;;;;;5073414;28;20044;-90
2022/10/08 12:24:56;;;;;;;15.07;9.65;;;19.30;99.90;;;;;;5091424;28;20024;-88
2022/10/08 12:27:30;;;;;;;14.20;9.68;;;19.50;99.90;;;;;;5073422;28;20113;-90
2022/10/08 12:30:04;;;;;;;14.75;10.23;;;19.40;99.90;;;;;;5074367;28;20081;-91
2022/10/08 12:32:31;;;;;;;17.67;10.57;;;19.10;99.90;;;;;;5093901;28;20031;-88
2022/10/08 12:34:57;;;;;;;15.73;11.55;;;19.20;99.90;;;;;;5083715;28;20487;-90
2022/10/08 12:37:41;;;;;;;25.47;10.97;;;19.00;99.90;;;;;;5096110;28;20028;-88
2022/10/08 12:40:42;;;;;;;15.65;10.90;;;19.20;99.90;;;;;;5078779;28;20024;-89
2022/10/08 12:43:18;;;;;;;23.40;10.43;;;19.40;99.90;;;;;;5070599;28;20032;-88
2022/10/08 12:46:16;;;;;;;14.20;10.30;;;19.40;99.90;;;;;;5093803;28;20135;-87
2022/10/08 12:49:04;;;;;;;11.70;9.27;;;19.20;99.90;;;;;;5053528;28;20106;-87
2022/10/08 12:51:45;;;;;;;20.50;10.43;;;18.90;99.90;;;;;;5087251;28;20434;-88
2022/10/08 12:54:24;;;;;;;20.70;11.40;;;19.00;99.90;;;;;;5073694;28;20021;-89